createdAt,value
2017-06-24T00:00:22.840Z,100446.81
2017-06-24T00:02:52.697Z,100454.67
2017-06-24T00:05:21.841Z,100445.12
2017-06-24T00:07:52.716Z,100447.37
2017-06-24T00:10:22.804Z,100440.03
2017-06-24T00:12:51.868Z,100452.55
2017-06-24T00:15:20.942Z,100450.33
2017-06-24T00:17:50.007Z,100447.11
2017-06-24T00:20:19.829Z,100442.56
2017-06-24T00:22:48.913Z,100446.45
2017-06-24T00:25:18.223Z,100446.23
2017-06-24T00:27:47.287Z,100448.22
2017-06-24T00:30:16.383Z,100440.67
2017-06-24T00:32:45.427Z,100445.77
2017-06-24T00:35:14.545Z,100439.58
2017-06-24T00:37:43.599Z,100444.25
2017-06-24T00:40:13.507Z,100443.98
2017-06-24T00:42:42.576Z,100438.20
2017-06-24T00:45:11.644Z,100438.89
2017-06-24T00:47:40.723Z,100444.17
2017-06-24T00:50:09.833Z,100440.83
2017-06-24T00:52:38.899Z,100443.14
2017-06-24T00:55:07.966Z,100434.08
2017-06-24T00:57:36.991Z,100440.37
2017-06-24T01:00:06.245Z,100438.76
2017-06-24T01:02:35.283Z,100449.37
2017-06-24T01:05:04.450Z,100451.68
2017-06-24T01:07:33.512Z,100446.55
2017-06-24T01:10:02.580Z,100437.81
2017-06-24T01:12:31.605Z,100441.33
2017-06-24T01:15:00.683Z,100445.94
2017-06-24T01:17:29.777Z,100452.05
2017-06-24T01:19:58.827Z,100457.50
2017-06-24T01:22:27.867Z,100455.23
2017-06-24T01:24:56.920Z,100447.24
2017-06-24T01:27:25.999Z,100441.75
2017-06-24T01:29:55.068Z,100435.08
2017-06-24T01:32:24.117Z,100447.55
2017-06-24T01:34:53.196Z,100436.11
2017-06-24T01:37:22.255Z,100448.80
2017-06-24T01:39:51.306Z,100454.36
2017-06-24T01:42:20.615Z,100458.98
2017-06-24T01:44:49.669Z,100458.91
2017-06-24T01:47:18.709Z,100453.25
2017-06-24T01:49:47.824Z,100463.52
2017-06-24T01:52:17.133Z,100455.39
2017-06-24T01:54:46.184Z,100466.67
2017-06-24T01:57:15.329Z,100460.75
2017-06-24T01:59:44.383Z,100462.31
2017-06-24T02:02:13.412Z,100463.28
2017-06-24T02:04:42.515Z,100460.63
2017-06-24T02:07:11.549Z,100458.22
2017-06-24T02:09:40.624Z,100455.78
2017-06-24T02:12:09.903Z,100451.84
2017-06-24T02:14:38.936Z,100446.66
2017-06-24T02:17:08.010Z,100443.07
2017-06-24T02:19:37.075Z,100445.72
2017-06-24T02:22:06.125Z,100442.59
2017-06-24T02:24:35.536Z,100440.11
2017-06-24T02:27:04.631Z,100446.11
2017-06-24T02:29:33.688Z,100442.67
2017-06-24T02:32:02.748Z,100452.66
2017-06-24T02:34:32.063Z,100444.89
2017-06-24T02:37:01.128Z,100443.56
2017-06-24T02:39:30.205Z,100446.22
2017-06-24T02:41:59.248Z,100442.66
2017-06-24T02:44:28.307Z,100444.55
2017-06-24T02:46:57.359Z,100443.70
2017-06-24T02:49:26.404Z,100441.88
2017-06-24T02:51:55.510Z,100435.87
2017-06-24T02:54:24.559Z,100432.59
2017-06-24T02:56:53.647Z,100429.00
2017-06-24T02:59:22.743Z,100434.01
2017-06-24T03:01:51.770Z,100435.60
2017-06-24T03:04:20.863Z,100432.73
2017-06-24T03:06:49.925Z,100432.06
2017-06-24T03:09:18.983Z,100432.59
2017-06-24T03:11:48.032Z,100425.02
2017-06-24T03:14:17.090Z,100429.69
2017-06-24T03:16:46.405Z,100430.48
2017-06-24T03:19:15.466Z,100427.88
2017-06-24T03:21:44.548Z,100430.02
2017-06-24T03:24:13.616Z,100420.93
2017-06-24T03:26:42.670Z,100413.88
2017-06-24T03:29:11.837Z,100410.13
2017-06-24T03:31:40.891Z,100397.53
2017-06-24T03:34:09.988Z,100408.30
2017-06-24T03:36:39.067Z,100400.92
2017-06-24T03:39:08.130Z,100395.61
2017-06-24T03:41:37.184Z,100391.50
2017-06-24T03:44:06.283Z,100389.57
2017-06-24T03:46:35.308Z,100398.57
2017-06-24T03:49:04.364Z,100398.66
2017-06-24T03:51:33.415Z,100399.70
2017-06-24T03:54:02.483Z,100393.45
2017-06-24T03:56:31.532Z,100393.14
2017-06-24T03:59:00.612Z,100395.83
2017-06-24T04:01:29.758Z,100386.73
2017-06-24T04:03:58.827Z,100397.28
2017-06-24T04:06:27.887Z,100399.51
2017-06-24T04:08:56.940Z,100403.90
2017-06-24T04:11:25.992Z,100397.83
2017-06-24T04:13:55.067Z,100398.22
2017-06-24T04:16:24.116Z,100400.12
2017-06-24T04:18:53.204Z,100400.64
2017-06-24T04:21:22.268Z,100400.73
2017-06-24T04:23:51.314Z,100389.16
2017-06-24T04:26:20.376Z,100394.66
2017-06-24T04:28:49.436Z,100389.41
2017-06-24T04:31:18.483Z,100382.52
2017-06-24T04:33:47.527Z,100381.14
2017-06-24T04:36:16.588Z,100381.72
2017-06-24T04:38:45.639Z,100384.42
2017-06-24T04:41:14.703Z,100387.78
2017-06-24T04:43:43.788Z,100384.64
2017-06-24T04:46:12.878Z,100394.18
2017-06-24T04:48:41.925Z,100385.17
2017-06-24T04:51:10.981Z,100390.27
2017-06-24T04:53:40.153Z,100388.11
2017-06-24T04:56:09.228Z,100391.03
2017-06-24T04:58:38.305Z,100390.91
2017-06-24T05:01:07.380Z,100377.99
2017-06-24T05:03:36.523Z,100379.56
2017-06-24T05:06:05.572Z,100385.98
2017-06-24T05:08:34.872Z,100387.82
2017-06-24T05:11:03.956Z,100389.28
2017-06-24T05:13:33.004Z,100385.87
2017-06-24T05:16:02.065Z,100383.39
2017-06-24T05:18:31.128Z,100383.30
2017-06-24T05:21:00.200Z,100368.79
2017-06-24T05:23:29.251Z,100370.88
2017-06-24T05:25:58.332Z,100362.86
2017-06-24T05:28:27.408Z,100369.95
2017-06-24T05:30:56.465Z,100367.46
2017-06-24T05:33:25.532Z,100367.22
2017-06-24T05:35:54.608Z,100373.67
2017-06-24T05:38:23.644Z,100373.50
2017-06-24T05:40:52.739Z,100367.53
2017-06-24T05:43:21.783Z,100363.50
2017-06-24T05:45:50.879Z,100362.97
2017-06-24T05:48:19.939Z,100367.19
2017-06-24T05:50:49.019Z,100374.16
2017-06-24T05:53:18.072Z,100379.08
2017-06-24T05:55:47.147Z,100374.06
2017-06-24T05:58:16.192Z,100379.25
2017-06-24T06:00:45.280Z,100382.56
2017-06-24T06:03:14.365Z,100380.91
2017-06-24T06:05:43.482Z,100376.34
2017-06-24T06:08:12.796Z,100367.02
2017-06-24T06:10:41.866Z,100376.48
2017-06-24T06:13:10.904Z,100377.67
2017-06-24T06:15:39.967Z,100376.44
2017-06-24T06:18:09.036Z,100377.88
2017-06-24T06:20:38.120Z,100380.68
2017-06-24T06:23:07.173Z,100372.80
2017-06-24T06:25:36.265Z,100381.49
2017-06-24T06:28:05.369Z,100379.31
2017-06-24T06:30:34.435Z,100374.41
2017-06-24T06:33:03.487Z,100382.55
2017-06-24T06:35:32.569Z,100374.35
2017-06-24T06:38:01.634Z,100383.30
2017-06-24T06:40:30.684Z,100381.53
2017-06-24T06:42:59.746Z,100384.48
2017-06-24T06:45:28.958Z,100380.34
2017-06-24T06:47:58.008Z,100378.80
2017-06-24T06:50:27.100Z,100379.02
2017-06-24T06:52:56.157Z,100383.47
2017-06-24T06:55:25.204Z,100378.40
2017-06-24T06:57:54.286Z,100367.80
2017-06-24T07:00:23.332Z,100373.13
2017-06-24T07:02:52.408Z,100372.43
2017-06-24T07:05:21.471Z,100374.36
2017-06-24T07:07:50.529Z,100368.06
2017-06-24T07:10:19.656Z,100362.00
2017-06-24T07:12:48.928Z,100376.84
2017-06-24T07:15:18.043Z,100367.45
2017-06-24T07:17:47.109Z,100371.58
2017-06-24T07:20:16.176Z,100362.23
2017-06-24T07:22:45.235Z,100369.96
2017-06-24T07:25:14.300Z,100370.18
2017-06-24T07:27:43.345Z,100373.06
2017-06-24T07:30:12.464Z,100369.00
2017-06-24T07:32:41.517Z,100376.94
2017-06-24T07:35:10.608Z,100371.25
2017-06-24T07:37:39.692Z,100375.55
2017-06-24T07:40:08.820Z,100371.42
2017-06-24T07:42:37.878Z,100371.64
2017-06-24T07:45:06.981Z,100371.89
2017-06-24T07:47:36.032Z,100374.67
2017-06-24T07:50:05.089Z,100375.91
2017-06-24T07:52:34.121Z,100373.77
2017-06-24T07:55:03.210Z,100370.27
2017-06-24T07:57:32.236Z,100372.11
2017-06-24T08:00:01.340Z,100373.75
2017-06-24T08:02:30.624Z,100364.75
2017-06-24T08:04:59.675Z,100364.42
2017-06-24T08:07:28.779Z,100363.36
2017-06-24T08:09:57.843Z,100368.87
2017-06-24T08:12:29.061Z,100373.36
2017-06-24T08:14:58.125Z,100364.68
2017-06-24T08:17:27.191Z,100355.61
2017-06-24T08:19:56.277Z,100367.67
2017-06-24T08:22:26.088Z,100358.29
2017-06-24T08:24:55.920Z,100358.17
2017-06-24T08:27:25.005Z,100365.92
2017-06-24T08:29:54.053Z,100359.85
2017-06-24T08:32:23.128Z,100352.74
2017-06-24T08:34:52.176Z,100355.14
2017-06-24T08:37:22.029Z,100350.20
2017-06-24T08:39:51.092Z,100352.36
2017-06-24T08:42:20.154Z,100350.95
2017-06-24T08:44:49.228Z,100342.09
2017-06-24T08:47:18.288Z,100348.83
2017-06-24T08:49:47.367Z,100331.39
2017-06-24T08:52:17.180Z,100339.30
2017-06-24T08:54:47.066Z,100332.98
2017-06-24T08:57:16.154Z,100335.56
2017-06-24T08:59:45.456Z,100332.38
2017-06-24T09:02:14.531Z,100318.16
2017-06-24T09:04:43.584Z,100325.70
2017-06-24T09:07:13.408Z,100316.20
2017-06-24T09:09:42.454Z,100324.25
2017-06-24T09:12:11.875Z,100330.14
2017-06-24T09:14:40.912Z,100317.77
2017-06-24T09:17:10.049Z,100316.33
2017-06-24T09:19:39.127Z,100315.89
2017-06-24T09:22:08.196Z,100317.28
2017-06-24T09:24:37.256Z,100321.58
2017-06-24T09:27:07.187Z,100322.55
2017-06-24T09:29:36.256Z,100327.36
2017-06-24T09:32:05.359Z,100330.03
2017-06-24T09:34:34.409Z,100327.30
2017-06-24T09:37:03.449Z,100330.05
2017-06-24T09:39:33.269Z,100324.13
2017-06-24T09:42:03.132Z,100322.28
2017-06-24T09:44:32.183Z,100315.56
2017-06-24T09:47:01.289Z,100317.34
2017-06-24T09:49:30.341Z,100327.08
2017-06-24T09:51:59.424Z,100324.39
2017-06-24T09:54:28.636Z,100324.23
2017-06-24T09:56:57.703Z,100337.70
2017-06-24T09:59:26.786Z,100337.34
2017-06-24T10:01:55.845Z,100336.95
2017-06-24T10:04:24.922Z,100340.54
2017-06-24T10:06:54.032Z,100343.30
2017-06-24T10:09:23.848Z,100333.42
2017-06-24T10:11:53.700Z,100340.92
2017-06-24T10:14:22.761Z,100340.15
2017-06-24T10:16:52.585Z,100333.04
2017-06-24T10:19:21.946Z,100336.97
2017-06-24T10:21:51.261Z,100336.77
2017-06-24T10:24:20.333Z,100344.69
2017-06-24T10:26:49.385Z,100328.48
2017-06-24T10:29:18.440Z,100335.56
2017-06-24T10:31:47.537Z,100342.67
2017-06-24T10:34:16.723Z,100336.98
2017-06-24T10:36:45.761Z,100345.44
2017-06-24T10:39:14.842Z,100339.31
2017-06-24T10:41:44.148Z,100341.92
2017-06-24T10:44:13.252Z,100342.50
2017-06-24T10:46:42.304Z,100340.72
2017-06-24T10:49:11.434Z,100339.15
2017-06-24T10:51:40.493Z,100346.05
2017-06-24T10:54:09.588Z,100340.52
2017-06-24T10:56:38.660Z,100344.86
2017-06-24T10:59:07.716Z,100341.89
2017-06-24T11:01:36.769Z,100338.50
2017-06-24T11:04:05.862Z,100342.67
2017-06-24T11:06:35.114Z,100351.98
2017-06-24T11:09:04.747Z,100360.88
2017-06-24T11:11:33.826Z,100353.37
2017-06-24T11:14:02.871Z,100352.18
2017-06-24T11:16:31.950Z,100357.32
2017-06-24T11:19:01.004Z,100362.48
2017-06-24T11:21:30.498Z,100357.73
2017-06-24T11:23:59.556Z,100365.03
2017-06-24T11:26:28.612Z,100361.89
2017-06-24T11:28:57.700Z,100366.05
2017-06-24T11:31:26.765Z,100370.39
2017-06-24T11:33:55.844Z,100367.20
2017-06-24T11:36:24.904Z,100363.05
2017-06-24T11:38:53.973Z,100358.71
2017-06-24T11:41:23.044Z,100363.07
2017-06-24T11:43:52.159Z,100351.78
2017-06-24T11:46:21.223Z,100356.34
2017-06-24T11:48:50.284Z,100362.84
2017-06-24T11:51:19.329Z,100360.88
2017-06-24T11:53:48.456Z,100360.50
2017-06-24T11:56:17.520Z,100355.56
2017-06-24T11:58:46.591Z,100354.56
2017-06-24T12:01:15.668Z,100362.84
2017-06-24T12:03:44.765Z,100357.31
2017-06-24T12:06:13.817Z,100362.08
2017-06-24T12:08:42.865Z,100361.45
2017-06-24T12:11:12.053Z,100357.73
2017-06-24T12:13:41.093Z,100357.33
2017-06-24T12:16:10.170Z,100364.82
2017-06-24T12:18:40.034Z,100360.67
2017-06-24T12:21:09.603Z,100359.28
2017-06-24T12:23:39.429Z,100353.34
2017-06-24T12:26:08.492Z,100363.01
2017-06-24T12:28:37.548Z,100359.45
2017-06-24T12:31:06.596Z,100352.94
2017-06-24T12:33:35.698Z,100348.38
2017-06-24T12:36:04.765Z,100353.72
2017-06-24T12:38:34.136Z,100349.56
2017-06-24T12:41:03.236Z,100339.30
2017-06-24T12:43:32.297Z,100344.98
2017-06-24T12:46:01.393Z,100346.36
2017-06-24T12:48:30.415Z,100346.14
2017-06-24T12:50:59.724Z,100340.80
2017-06-24T12:53:28.803Z,100338.80
2017-06-24T12:55:57.865Z,100344.13
2017-06-24T12:58:26.959Z,100343.50
2017-06-24T13:00:56.013Z,100343.90
2017-06-24T13:03:25.058Z,100346.69
2017-06-24T13:05:54.132Z,100344.70
2017-06-24T13:08:23.977Z,100343.73
2017-06-24T13:11:23.911Z,100339.75
2017-06-24T13:13:52.992Z,100346.89
2017-06-24T13:16:22.315Z,100335.78
2017-06-24T13:18:51.387Z,100346.66
2017-06-24T13:21:20.492Z,100345.58
2017-06-24T13:23:49.561Z,100338.66
2017-06-24T13:26:18.608Z,100347.62
2017-06-24T13:28:47.705Z,100355.41
2017-06-24T13:31:16.797Z,100350.34
2017-06-24T13:33:45.877Z,100361.86
2017-06-24T13:36:14.952Z,100370.56
2017-06-24T13:38:44.165Z,100366.41
2017-06-24T13:41:13.223Z,100363.47
2017-06-24T13:43:42.300Z,100366.03
2017-06-24T13:46:12.231Z,100372.77
2017-06-24T13:48:41.261Z,100360.50
2017-06-24T13:51:12.004Z,100366.63
2017-06-24T13:53:41.326Z,100371.38
2017-06-24T13:56:10.415Z,100361.88
2017-06-24T13:58:39.557Z,100374.67
2017-06-24T14:01:08.650Z,100369.13
2017-06-24T14:03:38.476Z,100371.30
2017-06-24T14:06:07.564Z,100369.34
2017-06-24T14:08:37.348Z,100377.85
2017-06-24T14:11:07.404Z,100367.80
2017-06-24T14:13:36.504Z,100375.09
2017-06-24T14:16:05.595Z,100365.77
2017-06-24T14:18:35.384Z,100366.75
2017-06-24T14:21:04.447Z,100367.32
2017-06-24T14:23:33.536Z,100371.89
2017-06-24T14:26:02.601Z,100372.85
2017-06-24T14:28:31.669Z,100370.31
2017-06-24T14:31:00.748Z,100369.11
2017-06-24T14:33:29.775Z,100368.31
2017-06-24T14:35:58.843Z,100373.22
2017-06-24T14:38:28.679Z,100365.67
2017-06-24T14:40:57.768Z,100359.95
2017-06-24T14:43:26.833Z,100360.52
2017-06-24T14:45:56.743Z,100363.28
2017-06-24T14:48:25.772Z,100360.32
2017-06-24T14:50:54.840Z,100357.75
2017-06-24T14:53:24.697Z,100363.11
2017-06-24T14:55:53.766Z,100357.38
2017-06-24T14:58:22.834Z,100353.41
2017-06-24T15:00:51.893Z,100359.13
2017-06-24T15:03:20.963Z,100359.73
2017-06-24T15:05:50.048Z,100353.80
2017-06-24T15:08:19.392Z,100349.88
2017-06-24T15:10:48.443Z,100344.92
2017-06-24T15:13:18.052Z,100346.08
2017-06-24T15:15:47.847Z,100348.42
2017-06-24T15:18:17.676Z,100344.28
2017-06-24T15:20:46.733Z,100343.30
2017-06-24T15:23:15.787Z,100344.08
2017-06-24T15:25:44.889Z,100346.19
2017-06-24T15:28:13.956Z,100343.80
2017-06-24T15:30:43.040Z,100347.12
2017-06-24T15:33:12.894Z,100342.35
2017-06-24T15:35:41.947Z,100345.94
2017-06-24T15:38:11.775Z,100341.59
2017-06-24T15:40:40.833Z,100343.56
2017-06-24T15:43:09.887Z,100343.03
2017-06-24T15:45:38.972Z,100340.27
2017-06-24T15:48:08.042Z,100331.98
2017-06-24T15:50:38.207Z,100332.58
2017-06-24T15:53:07.253Z,100336.38
2017-06-24T15:55:37.076Z,100330.06
2017-06-24T15:58:06.133Z,100325.53
2017-06-24T16:00:35.221Z,100323.16
2017-06-24T16:03:04.292Z,100326.14
2017-06-24T16:05:33.352Z,100332.45
2017-06-24T16:08:03.220Z,100321.21
2017-06-24T16:10:32.246Z,100322.22
2017-06-24T16:13:02.108Z,100315.26
2017-06-24T16:15:31.197Z,100319.80
2017-06-24T16:18:00.262Z,100311.12
2017-06-24T16:20:30.193Z,100317.63
2017-06-24T16:22:59.278Z,100319.80
2017-06-24T16:25:28.325Z,100313.69
2017-06-24T16:27:57.389Z,100309.09
2017-06-24T16:30:26.464Z,100313.23
2017-06-24T16:32:55.520Z,100313.23
2017-06-24T16:35:24.598Z,100315.18
2017-06-24T16:37:53.657Z,100321.70
2017-06-24T16:40:22.752Z,100313.97
2017-06-24T16:42:51.828Z,100315.95
2017-06-24T16:45:21.671Z,100312.64
2017-06-24T16:47:50.776Z,100317.97
2017-06-24T16:50:19.871Z,100314.98
2017-06-24T16:52:48.944Z,100312.62
2017-06-24T16:55:17.992Z,100315.97
2017-06-24T16:57:47.316Z,100315.77
2017-06-24T17:00:17.181Z,100313.23
2017-06-24T17:02:46.243Z,100320.34
2017-06-24T17:05:16.087Z,100319.36
2017-06-24T17:07:45.155Z,100322.48
2017-06-24T17:10:14.274Z,100322.48
2017-06-24T17:12:43.365Z,100323.10
2017-06-24T17:15:12.448Z,100320.31
2017-06-24T17:17:41.779Z,100323.08
2017-06-24T17:20:10.876Z,100322.06
2017-06-24T17:22:39.986Z,100324.03
2017-06-24T17:25:09.334Z,100319.10
2017-06-24T17:27:39.159Z,100316.59
2017-06-24T17:30:08.236Z,100315.46
2017-06-24T17:32:37.315Z,100310.94
2017-06-24T17:35:06.373Z,100299.91
2017-06-24T17:37:35.453Z,100295.16
2017-06-24T17:40:04.503Z,100294.00
2017-06-24T17:42:33.600Z,100287.50
2017-06-24T17:45:02.659Z,100288.28
2017-06-24T17:47:31.713Z,100277.04
2017-06-24T17:50:00.796Z,100278.24
2017-06-24T17:52:29.861Z,100279.41
2017-06-24T17:54:58.920Z,100280.78
2017-06-24T17:57:27.973Z,100270.91
2017-06-24T17:59:57.068Z,100271.72
2017-06-24T18:02:26.141Z,100272.09
2017-06-24T18:04:55.359Z,100274.06
2017-06-24T18:07:24.400Z,100262.81
2017-06-24T18:09:53.498Z,100266.36
2017-06-24T18:12:22.605Z,100267.75
2017-06-24T18:14:51.692Z,100264.98
2017-06-24T18:17:20.751Z,100260.03
2017-06-24T18:19:49.872Z,100258.83
2017-06-24T18:22:18.944Z,100259.83
2017-06-24T18:24:48.027Z,100260.82
2017-06-24T18:27:17.125Z,100268.69
2017-06-24T18:29:46.195Z,100261.30
2017-06-24T18:32:16.167Z,100250.66
2017-06-24T18:34:45.237Z,100255.37
2017-06-24T18:37:14.308Z,100269.17
2017-06-24T18:39:43.384Z,100260.30
2017-06-24T18:42:12.562Z,100260.27
2017-06-24T18:44:41.614Z,100264.20
2017-06-24T18:47:10.692Z,100261.77
2017-06-24T18:49:39.775Z,100267.06
2017-06-24T18:52:08.984Z,100268.80
2017-06-24T18:54:38.036Z,100270.70
2017-06-24T18:57:07.139Z,100272.62
2017-06-24T18:59:36.225Z,100271.09
2017-06-24T19:02:05.401Z,100266.90
2017-06-24T19:04:34.479Z,100272.22
2017-06-24T19:07:03.564Z,100272.70
2017-06-24T19:09:32.631Z,100273.42
2017-06-24T19:12:01.984Z,100277.31
2017-06-24T19:14:31.016Z,100272.73
2017-06-24T19:17:00.159Z,100271.47
2017-06-24T19:19:29.206Z,100274.78
2017-06-24T19:21:58.276Z,100274.77
2017-06-24T19:24:27.361Z,100278.64
2017-06-24T19:26:56.451Z,100268.20
2017-06-24T19:29:25.576Z,100271.36
2017-06-24T19:31:54.663Z,100271.94
2017-06-24T19:34:23.762Z,100272.62
2017-06-24T19:36:53.034Z,100270.59
2017-06-24T19:39:22.115Z,100266.72
2017-06-24T19:41:51.174Z,100269.08
2017-06-24T19:44:20.280Z,100262.96
2017-06-24T19:46:49.364Z,100262.09
2017-06-24T19:49:18.440Z,100260.86
2017-06-24T19:51:47.553Z,100260.59
2017-06-24T19:54:16.825Z,100261.94
2017-06-24T19:56:45.893Z,100258.16
2017-06-24T19:59:14.972Z,100251.36
2017-06-24T20:01:44.078Z,100251.14
2017-06-24T20:04:13.207Z,100256.83
2017-06-24T20:06:42.301Z,100260.13
2017-06-24T20:09:11.442Z,100263.07
2017-06-24T20:11:40.503Z,100256.58
2017-06-24T20:14:09.622Z,100259.59
2017-06-24T20:16:38.708Z,100253.78
2017-06-24T20:19:07.767Z,100260.34
2017-06-24T20:21:36.845Z,100262.30
2017-06-24T20:26:35.014Z,100250.49
2017-06-24T20:29:04.079Z,100253.46
2017-06-24T20:31:33.173Z,100247.64
2017-06-24T20:34:02.268Z,100243.95
2017-06-24T20:36:31.340Z,100252.41
2017-06-24T20:39:00.383Z,100253.59
2017-06-24T20:41:29.474Z,100253.02
2017-06-24T20:43:58.529Z,100256.76
2017-06-24T20:46:27.588Z,100256.17
2017-06-24T20:48:56.666Z,100249.86
2017-06-24T20:51:25.761Z,100251.05
2017-06-24T20:53:54.820Z,100254.73
2017-06-24T20:56:23.912Z,100261.21
2017-06-24T20:58:52.965Z,100254.23
2017-06-24T21:01:22.052Z,100253.32
2017-06-24T21:03:51.136Z,100248.03
2017-06-24T21:06:20.181Z,100251.19
2017-06-24T21:08:49.248Z,100254.00
2017-06-24T21:11:18.353Z,100253.85
2017-06-24T21:13:47.428Z,100248.90
2017-06-24T21:16:16.532Z,100244.93
2017-06-24T21:18:45.576Z,100247.28
2017-06-24T21:21:14.649Z,100248.62
2017-06-24T21:23:43.721Z,100252.48
2017-06-24T21:26:12.836Z,100252.41
2017-06-24T21:28:41.906Z,100246.52
2017-06-24T21:31:10.996Z,100239.81
2017-06-24T21:33:40.055Z,100242.36
2017-06-24T21:36:09.129Z,100240.39
2017-06-24T21:38:38.233Z,100232.78
2017-06-24T21:41:07.303Z,100233.39
2017-06-24T21:43:36.392Z,100239.11
2017-06-24T21:46:05.463Z,100243.22
2017-06-24T21:48:34.522Z,100241.05
2017-06-24T21:51:03.622Z,100239.81
2017-06-24T21:53:32.724Z,100231.02
2017-06-24T21:56:01.809Z,100234.97
2017-06-24T21:58:30.843Z,100231.88
2017-06-24T22:00:59.967Z,100228.94
2017-06-24T22:03:29.039Z,100229.55
2017-06-24T22:05:58.103Z,100228.95
2017-06-24T22:08:27.216Z,100224.03
2017-06-24T22:10:56.276Z,100229.15
2017-06-24T22:13:25.347Z,100231.30
2017-06-24T22:15:54.438Z,100226.78
2017-06-24T22:18:23.479Z,100226.00
2017-06-24T22:20:52.601Z,100226.44
2017-06-24T22:23:21.662Z,100215.62
2017-06-24T22:25:50.759Z,100211.50
2017-06-24T22:28:19.816Z,100201.84
2017-06-24T22:30:48.891Z,100194.13
2017-06-24T22:33:17.965Z,100199.47
2017-06-24T22:35:47.070Z,100187.44
2017-06-24T22:38:16.145Z,100190.18
2017-06-24T22:40:45.254Z,100189.58
2017-06-24T22:43:14.364Z,100183.82
2017-06-24T22:45:43.428Z,100179.30
2017-06-24T22:48:12.522Z,100177.53
2017-06-24T22:50:41.610Z,100181.08
2017-06-24T22:53:10.758Z,100182.10
2017-06-24T22:55:39.826Z,100177.58
2017-06-24T22:58:08.944Z,100163.23
2017-06-24T23:00:38.021Z,100151.41
2017-06-24T23:03:07.142Z,100139.16
2017-06-24T23:05:36.193Z,100146.05
2017-06-24T23:08:05.261Z,100145.05
2017-06-24T23:10:34.379Z,100140.29
2017-06-24T23:13:03.494Z,100139.53
2017-06-24T23:15:32.560Z,100136.99
2017-06-24T23:18:01.636Z,100143.48
2017-06-24T23:20:30.708Z,100141.50
2017-06-24T23:22:59.770Z,100136.95
2017-06-24T23:25:28.862Z,100134.58
2017-06-24T23:27:57.929Z,100129.91
2017-06-24T23:30:27.040Z,100127.55
2017-06-24T23:32:56.324Z,100127.56
2017-06-24T23:35:25.396Z,100129.13
2017-06-24T23:37:54.476Z,100131.44
2017-06-24T23:40:23.717Z,100123.81
2017-06-24T23:42:52.777Z,100127.55
2017-06-24T23:45:21.875Z,100118.50
2017-06-24T23:47:50.936Z,100115.41
2017-06-24T23:50:20.036Z,100113.63
2017-06-24T23:52:49.135Z,100109.91
2017-06-24T23:55:18.275Z,100114.03
2017-06-24T23:57:47.302Z,100108.52
